createdAt,value
2017-10-11T00:02:21.566Z,21.63
2017-10-11T00:04:48.239Z,19.03
2017-10-11T00:07:14.866Z,17.73
2017-10-11T00:09:41.512Z,19.83
2017-10-11T00:12:08.135Z,16.40
2017-10-11T00:14:34.744Z,15.97
2017-10-11T00:17:01.411Z,17.40
2017-10-11T00:19:28.075Z,15.83
2017-10-11T00:21:54.694Z,14.60
2017-10-11T00:24:21.318Z,17.13
2017-10-11T00:26:47.954Z,17.30
2017-10-11T00:29:14.591Z,20.33
2017-10-11T00:31:41.219Z,16.27
2017-10-11T00:34:07.855Z,14.17
2017-10-11T00:36:34.495Z,14.63
2017-10-11T00:39:01.130Z,11.63
2017-10-11T00:41:27.764Z,14.93
2017-10-11T00:43:54.380Z,13.97
2017-10-11T00:46:21.015Z,15.00
2017-10-11T00:48:47.626Z,36.87
2017-10-11T00:51:14.263Z,16.93
2017-10-11T00:53:40.902Z,13.50
2017-10-11T00:56:07.519Z,14.13
2017-10-11T00:58:34.219Z,15.60
2017-10-11T01:01:00.823Z,13.07
2017-10-11T01:03:27.471Z,14.07
2017-10-11T01:05:54.103Z,14.93
2017-10-11T01:08:20.743Z,14.23
2017-10-11T01:10:47.396Z,13.57
2017-10-11T01:13:13.993Z,11.90
2017-10-11T01:15:40.633Z,17.27
2017-10-11T01:18:07.251Z,12.70
2017-10-11T01:20:33.927Z,15.20
2017-10-11T01:23:00.595Z,11.27
2017-10-11T01:25:27.217Z,10.97
2017-10-11T01:27:53.848Z,9.63
2017-10-11T01:30:20.459Z,11.13
2017-10-11T01:32:47.081Z,12.03
2017-10-11T01:35:13.705Z,11.20
2017-10-11T01:37:40.318Z,9.47
2017-10-11T01:40:06.939Z,8.10
2017-10-11T01:42:33.556Z,12.37
2017-10-11T01:45:00.203Z,11.40
2017-10-11T01:47:26.799Z,8.70
2017-10-11T01:49:53.423Z,10.20
2017-10-11T01:52:20.087Z,12.90
2017-10-11T01:54:46.686Z,7.13
2017-10-11T01:57:13.319Z,16.30
2017-10-11T01:59:39.936Z,12.83
2017-10-11T02:02:06.564Z,7.67
2017-10-11T02:04:33.195Z,9.30
2017-10-11T02:06:59.842Z,10.70
2017-10-11T02:09:26.485Z,10.93
2017-10-11T02:11:53.123Z,16.37
2017-10-11T02:14:19.775Z,12.03
2017-10-11T02:16:46.418Z,11.70
2017-10-11T02:19:13.043Z,9.07
2017-10-11T02:21:39.695Z,9.63
2017-10-11T02:24:06.316Z,11.57
2017-10-11T02:26:32.935Z,9.83
2017-10-11T02:28:59.583Z,11.13
2017-10-11T02:31:26.200Z,10.57
2017-10-11T02:33:52.827Z,7.80
2017-10-11T02:36:19.435Z,8.93
2017-10-11T02:38:46.071Z,10.20
2017-10-11T02:41:12.690Z,7.03
2017-10-11T02:43:39.307Z,11.30
2017-10-11T02:46:05.951Z,9.40
2017-10-11T02:48:32.589Z,12.33
2017-10-11T02:50:59.227Z,10.93
2017-10-11T02:53:25.852Z,11.17
2017-10-11T02:55:52.487Z,12.10
2017-10-11T02:58:19.111Z,10.07
2017-10-11T03:00:45.752Z,9.97
2017-10-11T03:03:12.370Z,10.87
2017-10-11T03:05:38.985Z,8.70
2017-10-11T03:08:05.630Z,9.00
2017-10-11T03:10:32.226Z,9.50
2017-10-11T03:12:58.866Z,11.90
2017-10-11T03:15:25.502Z,9.20
2017-10-11T03:17:52.155Z,7.97
2017-10-11T03:20:18.800Z,29.63
2017-10-11T03:22:45.414Z,8.50
2017-10-11T03:25:12.035Z,12.27
2017-10-11T03:27:38.676Z,10.20
2017-10-11T03:30:05.285Z,13.80
2017-10-11T03:32:31.918Z,12.33
2017-10-11T03:34:58.562Z,16.93
2017-10-11T03:37:25.195Z,13.50
2017-10-11T03:39:52.851Z,9.47
2017-10-11T03:42:19.495Z,8.93
2017-10-11T03:44:46.125Z,9.20
2017-10-11T03:47:12.760Z,10.40
2017-10-11T03:49:39.387Z,14.63
2017-10-11T03:52:06.008Z,9.83
2017-10-11T03:54:32.623Z,11.03
2017-10-11T03:56:59.312Z,13.10
2017-10-11T03:59:25.927Z,11.00
2017-10-11T04:01:52.547Z,17.50
2017-10-11T04:04:19.166Z,11.20
2017-10-11T04:06:45.812Z,9.03
2017-10-11T04:09:12.418Z,10.53
2017-10-11T04:11:39.068Z,13.93
2017-10-11T04:14:05.716Z,10.47
2017-10-11T04:16:32.332Z,11.10
2017-10-11T04:18:58.976Z,12.93
2017-10-11T04:21:25.605Z,12.67
2017-10-11T04:23:52.243Z,12.23
2017-10-11T04:26:18.897Z,9.83
2017-10-11T04:28:45.518Z,10.23
2017-10-11T04:31:12.171Z,12.43
2017-10-11T04:33:38.784Z,9.37
2017-10-11T04:36:05.395Z,12.63
2017-10-11T04:38:32.026Z,11.60
2017-10-11T04:40:58.651Z,10.03
2017-10-11T04:43:25.292Z,17.37
2017-10-11T04:45:51.914Z,12.93
2017-10-11T04:48:18.556Z,11.50
2017-10-11T04:50:45.182Z,14.67
2017-10-11T04:53:11.799Z,11.40
2017-10-11T04:55:38.446Z,12.97
2017-10-11T04:58:05.090Z,14.70
2017-10-11T05:00:31.739Z,11.03
2017-10-11T05:02:58.348Z,10.03
2017-10-11T05:05:24.971Z,14.30
2017-10-11T05:07:51.593Z,20.20
2017-10-11T05:10:18.219Z,17.47
2017-10-11T05:12:44.855Z,9.90
2017-10-11T05:15:11.474Z,9.30
2017-10-11T05:17:38.097Z,18.00
2017-10-11T05:20:04.746Z,10.03
2017-10-11T05:22:31.374Z,12.30
2017-10-11T05:24:58.061Z,9.20
2017-10-11T05:27:24.672Z,11.50
2017-10-11T05:29:51.270Z,9.77
2017-10-11T05:32:17.898Z,12.00
2017-10-11T05:34:44.515Z,8.73
2017-10-11T05:37:11.162Z,10.37
2017-10-11T05:39:37.769Z,8.33
2017-10-11T05:42:04.378Z,7.23
2017-10-11T05:44:31.007Z,9.00
2017-10-11T05:46:57.619Z,8.40
2017-10-11T05:49:24.233Z,10.73
2017-10-11T05:51:50.851Z,6.70
2017-10-11T05:54:17.464Z,7.23
2017-10-11T05:56:44.096Z,8.93
2017-10-11T05:59:10.729Z,11.20
2017-10-11T06:01:37.376Z,6.77
2017-10-11T06:04:03.995Z,7.70
2017-10-11T06:06:30.594Z,8.73
2017-10-11T06:08:57.255Z,13.97
2017-10-11T06:11:24.026Z,10.50
2017-10-11T06:13:50.664Z,6.70
2017-10-11T06:16:17.273Z,14.63
2017-10-11T06:18:43.910Z,10.70
2017-10-11T06:21:10.525Z,8.47
2017-10-11T06:23:37.175Z,11.93
2017-10-11T06:26:03.803Z,9.33
2017-10-11T06:28:30.424Z,10.63
2017-10-11T06:30:57.083Z,12.07
2017-10-11T06:33:23.727Z,16.13
2017-10-11T06:35:50.346Z,7.53
2017-10-11T06:38:17.036Z,11.70
2017-10-11T06:40:43.675Z,12.13
2017-10-11T06:43:10.284Z,9.17
2017-10-11T06:45:36.911Z,10.73
2017-10-11T06:48:03.522Z,9.93
2017-10-11T06:50:30.171Z,7.87
2017-10-11T06:52:56.807Z,7.90
2017-10-11T06:55:23.458Z,10.70
2017-10-11T06:57:50.095Z,7.27
2017-10-11T07:00:16.742Z,9.87
2017-10-11T07:02:43.404Z,10.47
2017-10-11T07:05:10.035Z,10.50
2017-10-11T07:07:36.656Z,12.73
2017-10-11T07:10:03.300Z,9.73
2017-10-11T07:12:29.932Z,12.63
2017-10-11T07:14:56.552Z,9.17
2017-10-11T07:17:23.199Z,8.00
2017-10-11T07:19:49.822Z,7.13
2017-10-11T07:22:16.439Z,9.13
2017-10-11T07:24:43.062Z,7.13
2017-10-11T07:27:09.699Z,8.00
2017-10-11T07:29:36.333Z,8.33
2017-10-11T07:32:02.963Z,5.17
2017-10-11T07:34:29.775Z,6.10
2017-10-11T07:36:56.407Z,10.93
2017-10-11T07:39:23.224Z,6.00
2017-10-11T07:41:49.835Z,7.60
2017-10-11T07:44:16.470Z,8.00
2017-10-11T07:46:43.099Z,5.90
2017-10-11T07:49:09.736Z,5.33
2017-10-11T07:51:36.381Z,8.80
2017-10-11T07:54:03.000Z,5.90
2017-10-11T07:56:29.634Z,8.27
2017-10-11T07:58:56.258Z,6.17
2017-10-11T08:01:22.867Z,6.50
2017-10-11T08:03:49.497Z,3.77
2017-10-11T08:06:16.115Z,6.43
2017-10-11T08:08:42.783Z,7.20
2017-10-11T08:11:09.391Z,19.70
2017-10-11T08:13:36.007Z,3.13
2017-10-11T08:16:02.667Z,4.63
2017-10-11T08:18:29.287Z,11.87
2017-10-11T08:20:55.934Z,3.90
2017-10-11T08:23:22.579Z,3.80
2017-10-11T08:25:49.214Z,4.60
2017-10-11T08:28:15.846Z,3.77
2017-10-11T08:30:42.479Z,7.70
2017-10-11T08:33:09.107Z,4.40
2017-10-11T08:35:35.753Z,4.80
2017-10-11T08:38:02.414Z,4.80
2017-10-11T08:40:29.014Z,5.83
2017-10-11T08:42:55.682Z,8.10
2017-10-11T08:45:22.294Z,7.57
2017-10-11T08:47:48.953Z,5.50
2017-10-11T08:50:15.567Z,4.73
2017-10-11T08:52:42.212Z,5.70
2017-10-11T08:55:08.821Z,7.90
2017-10-11T08:57:35.476Z,7.47
2017-10-11T09:00:02.086Z,6.50
2017-10-11T09:02:28.681Z,5.90
2017-10-11T09:04:55.341Z,8.60
2017-10-11T09:07:21.969Z,4.90
2017-10-11T09:09:48.631Z,5.60
2017-10-11T09:12:15.239Z,4.37
2017-10-11T09:14:41.854Z,3.50
2017-10-11T09:17:08.485Z,4.47
2017-10-11T09:19:35.096Z,9.10
2017-10-11T09:22:01.729Z,5.00
2017-10-11T09:24:28.367Z,7.10
2017-10-11T09:26:54.994Z,3.33
2017-10-11T09:29:21.606Z,4.03
2017-10-11T09:31:48.287Z,3.87
2017-10-11T09:34:14.919Z,4.03
2017-10-11T09:36:41.568Z,4.50
2017-10-11T09:39:08.240Z,4.60
2017-10-11T09:41:34.878Z,5.50
2017-10-11T09:44:01.494Z,4.13
2017-10-11T09:46:28.125Z,4.90
2017-10-11T09:48:54.769Z,7.03
2017-10-11T09:51:21.414Z,3.90
2017-10-11T09:53:48.026Z,5.37
2017-10-11T09:56:14.636Z,3.80
2017-10-11T09:58:41.298Z,5.90
2017-10-11T10:01:07.912Z,9.90
2017-10-11T10:03:34.543Z,4.47
2017-10-11T10:06:01.155Z,5.53
2017-10-11T10:08:27.769Z,5.20
2017-10-11T10:10:54.405Z,6.23
2017-10-11T10:13:21.017Z,5.30
2017-10-11T10:15:47.647Z,8.50
2017-10-11T10:18:14.284Z,4.23
2017-10-11T10:20:40.915Z,7.77
2017-10-11T10:23:07.560Z,6.80
2017-10-11T10:25:34.191Z,7.37
2017-10-11T10:28:00.822Z,4.97
2017-10-11T10:30:27.435Z,5.37
2017-10-11T10:32:54.063Z,5.87
2017-10-11T10:35:20.719Z,5.20
2017-10-11T10:37:47.381Z,4.17
2017-10-11T10:40:13.991Z,6.77
2017-10-11T10:42:40.634Z,6.50
2017-10-11T10:45:08.067Z,5.73
2017-10-11T10:47:34.710Z,6.77
2017-10-11T10:50:01.327Z,5.20
2017-10-11T10:52:27.974Z,5.33
2017-10-11T10:54:54.898Z,6.47
2017-10-11T10:57:21.531Z,9.70
2017-10-11T10:59:48.175Z,6.40
2017-10-11T11:02:14.809Z,5.53
2017-10-11T11:04:41.445Z,5.57
2017-10-11T11:07:08.053Z,9.57
2017-10-11T11:09:34.678Z,5.90
2017-10-11T11:12:01.359Z,4.83
2017-10-11T11:14:27.970Z,6.33
2017-10-11T11:16:54.588Z,7.00
2017-10-11T11:19:21.224Z,7.27
2017-10-11T11:21:47.847Z,7.00
2017-10-11T11:24:14.515Z,6.70
2017-10-11T11:26:41.161Z,7.27
2017-10-11T11:29:07.811Z,7.63
2017-10-11T11:31:34.433Z,6.67
2017-10-11T11:34:01.055Z,8.80
2017-10-11T11:36:27.694Z,4.70
2017-10-11T11:38:54.323Z,5.83
2017-10-11T11:41:20.943Z,6.03
2017-10-11T11:43:47.611Z,6.13
2017-10-11T11:46:14.222Z,5.67
2017-10-11T11:48:40.863Z,6.43
2017-10-11T11:51:07.481Z,10.20
2017-10-11T11:53:34.134Z,6.00
2017-10-11T11:56:00.765Z,6.27
2017-10-11T11:58:27.432Z,9.43
2017-10-11T12:00:54.076Z,5.60
2017-10-11T12:03:20.720Z,5.33
2017-10-11T12:05:47.349Z,4.60
2017-10-11T12:08:14.004Z,5.20
2017-10-11T12:10:40.646Z,5.67
2017-10-11T12:13:07.272Z,7.23
2017-10-11T12:15:33.888Z,9.47
2017-10-11T12:18:00.524Z,9.10
2017-10-11T12:20:27.143Z,7.37
2017-10-11T12:22:53.774Z,4.93
2017-10-11T12:25:20.405Z,6.87
2017-10-11T12:27:47.173Z,8.60
2017-10-11T12:30:13.843Z,6.70
2017-10-11T12:32:40.522Z,9.40
2017-10-11T12:35:07.146Z,8.27
2017-10-11T12:37:33.785Z,6.60
2017-10-11T12:40:00.416Z,5.50
2017-10-11T12:42:27.020Z,9.93
2017-10-11T12:44:53.662Z,6.30
2017-10-11T12:47:20.377Z,7.60
2017-10-11T12:49:47.356Z,6.17
2017-10-11T12:52:13.972Z,6.00
2017-10-11T12:54:40.581Z,6.47
2017-10-11T12:57:07.232Z,7.70
2017-10-11T12:59:33.872Z,5.50
2017-10-11T13:02:00.489Z,7.20
2017-10-11T13:04:27.130Z,6.73
2017-10-11T13:06:53.746Z,6.50
2017-10-11T13:09:20.406Z,5.73
2017-10-11T13:11:47.034Z,4.93
2017-10-11T13:14:13.641Z,8.33
2017-10-11T13:16:40.286Z,6.40
2017-10-11T13:19:06.908Z,7.43
2017-10-11T13:21:33.562Z,6.10
2017-10-11T13:24:00.192Z,4.40
2017-10-11T13:26:26.824Z,5.40
2017-10-11T13:28:53.442Z,4.50
2017-10-11T13:31:20.063Z,5.23
2017-10-11T13:33:46.698Z,5.67
2017-10-11T13:36:13.335Z,5.30
2017-10-11T13:38:39.943Z,4.77
2017-10-11T13:41:06.593Z,5.07
2017-10-11T13:43:33.206Z,4.47
2017-10-11T13:45:59.819Z,5.57
2017-10-11T13:48:26.464Z,5.07
2017-10-11T13:50:53.115Z,6.30
2017-10-11T13:53:19.726Z,5.77
2017-10-11T13:55:46.358Z,6.43
2017-10-11T13:58:12.995Z,4.97
2017-10-11T14:00:39.626Z,5.83
2017-10-11T14:03:06.244Z,7.33
2017-10-11T14:05:32.895Z,7.87
2017-10-11T14:07:59.523Z,4.80
2017-10-11T14:10:26.153Z,5.57
2017-10-11T14:12:52.771Z,5.27
2017-10-11T14:15:19.395Z,5.83
2017-10-11T14:17:46.018Z,5.30
2017-10-11T14:20:12.650Z,5.17
2017-10-11T14:22:39.296Z,5.77
2017-10-11T14:25:06.094Z,6.10
2017-10-11T14:27:32.691Z,5.63
2017-10-11T14:29:59.328Z,5.53
2017-10-11T14:32:25.966Z,5.93
2017-10-11T14:34:52.607Z,8.27
2017-10-11T14:37:19.244Z,6.60
2017-10-11T14:39:45.855Z,6.20
2017-10-11T14:42:12.494Z,5.50
2017-10-11T14:44:39.121Z,9.23
2017-10-11T14:47:05.752Z,5.97
2017-10-11T14:49:32.496Z,5.63
2017-10-11T14:51:59.128Z,5.50
2017-10-11T14:54:25.783Z,6.80
2017-10-11T14:56:52.435Z,7.60
2017-10-11T14:59:19.103Z,4.40
2017-10-11T15:01:45.703Z,6.63
2017-10-11T15:04:12.306Z,7.97
2017-10-11T15:06:38.936Z,7.57
2017-10-11T15:09:05.553Z,19.40
2017-10-11T15:11:32.194Z,7.90
2017-10-11T15:13:58.835Z,9.40
2017-10-11T15:16:25.473Z,8.13
2017-10-11T15:18:52.133Z,7.17
2017-10-11T15:21:18.737Z,3.90
2017-10-11T15:23:45.398Z,4.80
2017-10-11T15:26:11.999Z,4.50
2017-10-11T15:28:38.623Z,7.13
2017-10-11T15:31:05.270Z,5.00
2017-10-11T15:33:31.871Z,4.00
2017-10-11T15:35:58.495Z,6.67
2017-10-11T15:38:25.145Z,4.87
2017-10-11T15:40:51.739Z,8.03
2017-10-11T15:43:18.387Z,4.80
2017-10-11T15:45:45.032Z,5.63
2017-10-11T15:48:11.653Z,5.83
2017-10-11T15:50:38.307Z,5.90
2017-10-11T15:53:04.940Z,4.30
2017-10-11T15:55:31.571Z,8.03
2017-10-11T15:57:58.203Z,6.23
2017-10-11T16:00:24.819Z,4.00
2017-10-11T16:02:51.435Z,4.43
2017-10-11T16:05:18.107Z,5.13
2017-10-11T16:07:44.735Z,6.27
2017-10-11T16:10:11.361Z,4.30
2017-10-11T16:12:37.998Z,5.57
2017-10-11T16:15:04.615Z,6.60
2017-10-11T16:17:31.234Z,4.27
2017-10-11T16:19:57.859Z,6.50
2017-10-11T16:22:24.492Z,4.80
2017-10-11T16:24:51.122Z,5.70
2017-10-11T16:27:17.743Z,4.53
2017-10-11T16:29:44.378Z,5.17
2017-10-11T16:32:10.991Z,10.93
2017-10-11T16:34:37.618Z,5.77
2017-10-11T16:37:04.267Z,4.30
2017-10-11T16:39:30.870Z,4.30
2017-10-11T16:41:57.529Z,5.90
2017-10-11T16:44:25.030Z,9.43
2017-10-11T16:46:51.650Z,4.83
2017-10-11T16:49:18.298Z,8.97
2017-10-11T16:51:44.917Z,6.13
2017-10-11T16:54:11.570Z,5.40
2017-10-11T16:56:38.211Z,3.63
2017-10-11T16:59:04.831Z,5.37
2017-10-11T17:01:31.571Z,5.80
2017-10-11T17:03:58.218Z,4.00
2017-10-11T17:06:24.846Z,3.20
2017-10-11T17:08:51.514Z,4.43
2017-10-11T17:11:18.153Z,5.80
2017-10-11T17:13:44.783Z,4.43
2017-10-11T17:16:11.399Z,5.87
2017-10-11T17:18:38.070Z,7.30
2017-10-11T17:21:05.559Z,5.20
2017-10-11T17:23:32.174Z,6.60
2017-10-11T17:25:59.279Z,12.10
2017-10-11T17:28:25.991Z,4.53
2017-10-11T17:30:52.656Z,7.70
2017-10-11T17:33:19.274Z,4.23
2017-10-11T17:35:45.902Z,9.70
2017-10-11T17:38:12.527Z,7.43
2017-10-11T17:40:39.192Z,5.90
2017-10-11T17:43:06.230Z,5.10
2017-10-11T17:45:32.866Z,8.07
2017-10-11T17:47:59.528Z,3.50
2017-10-11T17:50:26.155Z,3.67
2017-10-11T17:52:52.823Z,8.10
2017-10-11T17:55:19.523Z,3.93
2017-10-11T17:57:46.176Z,9.97
2017-10-11T18:00:12.802Z,6.43
2017-10-11T18:02:39.462Z,6.70
2017-10-11T18:05:06.135Z,5.17
2017-10-11T18:07:32.912Z,7.17
2017-10-11T18:09:59.554Z,4.00
2017-10-11T18:12:26.194Z,4.77
2017-10-11T18:14:52.830Z,10.67
2017-10-11T18:17:19.483Z,5.07
2017-10-11T18:19:46.106Z,4.07
2017-10-11T18:22:12.743Z,7.23
2017-10-11T18:24:39.354Z,4.63
2017-10-11T18:27:05.991Z,6.30
2017-10-11T18:29:32.637Z,4.30
2017-10-11T18:31:59.251Z,3.30
2017-10-11T18:34:25.883Z,4.57
2017-10-11T18:36:52.614Z,4.07
2017-10-11T18:39:19.235Z,5.87
2017-10-11T18:41:45.873Z,3.47
2017-10-11T18:44:12.508Z,3.30
2017-10-11T18:46:39.139Z,3.57
2017-10-11T18:49:05.800Z,5.73
2017-10-11T18:51:32.416Z,4.80
2017-10-11T18:53:59.099Z,4.60
2017-10-11T18:56:25.775Z,3.60
2017-10-11T18:58:52.411Z,5.40
2017-10-11T19:01:19.035Z,7.03
2017-10-11T19:03:45.817Z,3.77
2017-10-11T19:06:12.436Z,8.20
2017-10-11T19:08:39.034Z,3.77
2017-10-11T19:11:05.673Z,10.43
2017-10-11T19:13:32.295Z,9.10
2017-10-11T19:15:58.953Z,4.23
2017-10-11T19:18:25.619Z,4.60
2017-10-11T19:20:52.246Z,6.97
2017-10-11T19:23:18.893Z,3.57
2017-10-11T19:25:45.539Z,4.03
2017-10-11T19:28:12.176Z,8.83
2017-10-11T19:30:38.805Z,6.70
2017-10-11T19:33:05.412Z,3.30
2017-10-11T19:35:32.027Z,6.27
2017-10-11T19:37:58.700Z,5.00
2017-10-11T19:40:25.329Z,5.17
2017-10-11T19:42:51.958Z,7.93
2017-10-11T19:45:18.600Z,4.10
2017-10-11T19:47:45.239Z,7.00
2017-10-11T19:50:11.869Z,4.73
2017-10-11T19:52:38.543Z,5.77
2017-10-11T19:55:05.198Z,3.47
2017-10-11T19:57:32.181Z,3.40
2017-10-11T19:59:58.864Z,5.00
2017-10-11T20:02:25.472Z,4.80
2017-10-11T20:04:52.096Z,5.23
2017-10-11T20:07:18.732Z,3.10
2017-10-11T20:09:45.351Z,4.10
2017-10-11T20:12:11.976Z,4.83
2017-10-11T20:14:38.612Z,3.80
2017-10-11T20:17:05.271Z,7.70
2017-10-11T20:19:31.902Z,4.13
2017-10-11T20:21:58.553Z,5.70
2017-10-11T20:24:25.211Z,3.63
2017-10-11T20:26:51.874Z,4.93
2017-10-11T20:29:18.508Z,4.20
2017-10-11T20:31:45.111Z,7.93
2017-10-11T20:34:11.773Z,5.77
2017-10-11T20:36:38.402Z,7.00
2017-10-11T20:39:05.028Z,4.53
2017-10-11T20:41:31.695Z,2.73
2017-10-11T20:43:58.335Z,6.60
2017-10-11T20:46:24.959Z,3.20
2017-10-11T20:48:51.573Z,3.83
2017-10-11T20:51:18.212Z,4.53
2017-10-11T20:53:44.820Z,5.73
2017-10-11T20:56:11.439Z,7.37
2017-10-11T20:58:38.096Z,2.87
2017-10-11T21:01:04.736Z,5.10
2017-10-11T21:03:31.363Z,6.37
2017-10-11T21:05:58.023Z,2.73
2017-10-11T21:08:24.650Z,3.60
2017-10-11T21:10:51.272Z,4.83
2017-10-11T21:13:17.919Z,3.70
2017-10-11T21:15:44.572Z,2.53
2017-10-11T21:18:11.215Z,4.20
2017-10-11T21:20:37.821Z,4.23
2017-10-11T21:23:04.460Z,4.50
2017-10-11T21:25:31.083Z,3.10
2017-10-11T21:27:57.713Z,3.73
2017-10-11T21:30:24.353Z,2.53
2017-10-11T21:32:50.967Z,2.17
2017-10-11T21:35:17.601Z,4.80
2017-10-11T21:37:44.318Z,2.37
2017-10-11T21:40:10.950Z,4.10
2017-10-11T21:42:37.579Z,1.70
2017-10-11T21:45:04.199Z,3.17
2017-10-11T21:47:30.819Z,4.00
2017-10-11T21:49:57.470Z,2.90
2017-10-11T21:52:24.088Z,7.47
2017-10-11T21:54:50.742Z,4.97
2017-10-11T21:57:17.365Z,4.43
2017-10-11T21:59:44.012Z,4.53
2017-10-11T22:02:10.662Z,2.87
2017-10-11T22:04:37.311Z,4.17
2017-10-11T22:07:04.007Z,3.87
2017-10-11T22:09:30.659Z,4.80
2017-10-11T22:11:57.288Z,2.40
2017-10-11T22:14:23.911Z,3.77
2017-10-11T22:16:50.534Z,5.20
2017-10-11T22:19:17.163Z,2.53
2017-10-11T22:21:43.780Z,4.93
2017-10-11T22:24:10.408Z,4.80
2017-10-11T22:26:37.034Z,9.37
2017-10-11T22:29:03.663Z,2.47
2017-10-11T22:31:30.275Z,3.23
2017-10-11T22:33:56.910Z,4.20
2017-10-11T22:36:23.528Z,3.50
2017-10-11T22:38:50.164Z,4.07
2017-10-11T22:41:16.778Z,2.77
2017-10-11T22:43:43.436Z,4.10
2017-10-11T22:46:10.070Z,9.83
2017-10-11T22:48:36.702Z,3.90
2017-10-11T22:51:03.335Z,4.23
2017-10-11T22:53:29.947Z,5.30
2017-10-11T22:55:56.572Z,2.53
2017-10-11T22:58:23.198Z,6.10
2017-10-11T23:00:49.839Z,3.00
2017-10-11T23:03:16.438Z,5.60
2017-10-11T23:05:43.063Z,3.20
2017-10-11T23:08:09.695Z,2.50
2017-10-11T23:10:36.291Z,4.27
2017-10-11T23:13:02.926Z,7.10
2017-10-11T23:15:29.555Z,5.40
2017-10-11T23:17:56.171Z,2.93
2017-10-11T23:20:22.838Z,3.83
2017-10-11T23:22:49.446Z,4.07
2017-10-11T23:25:16.083Z,11.50
2017-10-11T23:27:42.706Z,2.60
2017-10-11T23:30:09.330Z,2.80
2017-10-11T23:32:35.955Z,5.33
2017-10-11T23:35:02.597Z,3.97
2017-10-11T23:37:29.203Z,3.73
2017-10-11T23:39:55.872Z,5.27
2017-10-11T23:42:22.486Z,3.93
2017-10-11T23:44:49.108Z,3.00
2017-10-11T23:47:15.723Z,4.43
2017-10-11T23:49:42.356Z,4.70
2017-10-11T23:52:08.987Z,3.53
2017-10-11T23:54:35.633Z,2.83
2017-10-11T23:57:02.248Z,4.00
2017-10-11T23:59:28.903Z,2.90
